createdAt,value
2019-02-15T00:00:26.612Z,-1.20
2019-02-15T00:02:53.133Z,-1.20
2019-02-15T00:05:19.694Z,-1.20
2019-02-15T00:07:46.213Z,-1.30
2019-02-15T00:10:12.767Z,-1.30
2019-02-15T00:12:39.325Z,-1.20
2019-02-15T00:15:05.835Z,-1.20
2019-02-15T00:17:34.197Z,-1.30
2019-02-15T00:20:02.508Z,-1.50
2019-02-15T00:22:29.136Z,-1.50
2019-02-15T00:24:55.648Z,-1.70
2019-02-15T00:27:22.208Z,-1.80
2019-02-15T00:29:48.724Z,-1.80
2019-02-15T00:32:15.481Z,-1.80
2019-02-15T00:34:41.996Z,-1.80
2019-02-15T00:37:08.512Z,-1.80
2019-02-15T00:39:35.066Z,-1.80
2019-02-15T00:42:01.621Z,-1.80
2019-02-15T00:44:28.238Z,-1.70
2019-02-15T00:47:05.220Z,-1.70
2019-02-15T00:49:33.541Z,-1.70
2019-02-15T00:52:11.693Z,-1.60
2019-02-15T00:54:40.013Z,-1.60
2019-02-15T00:57:08.770Z,-1.50
2019-02-15T00:59:39.838Z,-1.50
2019-02-15T01:02:10.793Z,-1.50
2019-02-15T01:04:39.108Z,-1.60
2019-02-15T01:07:19.248Z,-1.60
2019-02-15T01:10:03.679Z,-1.60
2019-02-15T01:12:32.028Z,-1.60
2019-02-15T01:14:58.589Z,-1.50
2019-02-15T01:17:25.108Z,-1.40
2019-02-15T01:19:51.661Z,-1.30
2019-02-15T01:22:18.182Z,-1.40
2019-02-15T01:24:45.481Z,-1.40
2019-02-15T01:27:13.836Z,-1.50
2019-02-15T01:29:58.571Z,-1.60
2019-02-15T01:32:26.922Z,-1.60
2019-02-15T01:34:55.236Z,-1.70
2019-02-15T01:37:23.602Z,-1.80
2019-02-15T01:40:00.876Z,-1.80
2019-02-15T01:42:40.869Z,-1.80
2019-02-15T01:45:09.222Z,-1.80
2019-02-15T01:47:36.041Z,-1.80
2019-02-15T01:50:03.396Z,-1.80
2019-02-15T01:52:31.182Z,-1.80
2019-02-15T01:54:57.695Z,-1.70
2019-02-15T01:57:24.252Z,-1.60
2019-02-15T01:59:50.772Z,-1.60
2019-02-15T02:02:17.316Z,-1.60
2019-02-15T02:04:43.872Z,-1.60
2019-02-15T02:07:10.399Z,-1.60
2019-02-15T02:09:36.948Z,-1.60
2019-02-15T02:12:04.011Z,-1.70
2019-02-15T02:14:30.524Z,-1.70
2019-02-15T02:16:57.080Z,-1.70
2019-02-15T02:19:23.637Z,-1.70
2019-02-15T02:21:50.165Z,-1.70
2019-02-15T02:24:16.744Z,-1.70
2019-02-15T02:26:43.296Z,-1.70
2019-02-15T02:29:10.172Z,-1.70
2019-02-15T02:31:36.727Z,-1.70
2019-02-15T02:34:03.287Z,-1.70
2019-02-15T02:36:31.601Z,-1.70
2019-02-15T02:38:58.157Z,-1.70
2019-02-15T02:41:24.713Z,-1.80
2019-02-15T02:43:59.431Z,-1.70
2019-02-15T02:46:19.594Z,-1.60
2019-02-15T02:48:46.147Z,-1.50
2019-02-15T02:51:12.670Z,-1.20
2019-02-15T02:53:39.234Z,-1.00
2019-02-15T02:56:05.783Z,-1.00
2019-02-15T02:58:32.399Z,-0.90
2019-02-15T03:00:58.954Z,-0.70
2019-02-15T03:03:25.515Z,-0.70
2019-02-15T03:05:52.029Z,-0.70
2019-02-15T03:08:20.542Z,-0.70
2019-02-15T03:10:47.107Z,-0.60
2019-02-15T03:13:13.628Z,-0.50
2019-02-15T03:15:40.181Z,-0.50
2019-02-15T03:18:06.737Z,-0.40
2019-02-15T03:20:33.661Z,-0.30
2019-02-15T03:23:00.622Z,-0.30
2019-02-15T03:25:27.217Z,-0.30
2019-02-15T03:27:53.836Z,-0.20
2019-02-15T03:30:20.530Z,-0.30
2019-02-15T03:32:47.063Z,-0.30
2019-02-15T03:35:13.576Z,-0.40
2019-02-15T03:37:45.062Z,-0.50
2019-02-15T03:40:15.970Z,-0.80
2019-02-15T03:42:42.489Z,-1.10
2019-02-15T03:45:09.051Z,-1.20
2019-02-15T03:47:35.607Z,-1.30
2019-02-15T03:50:04.688Z,-1.40
2019-02-15T03:52:30.673Z,-1.40
2019-02-15T03:54:57.235Z,-1.50
2019-02-15T03:57:23.744Z,-1.50
2019-02-15T03:59:50.296Z,-1.50
2019-02-15T04:02:16.853Z,-1.60
2019-02-15T04:04:43.369Z,-1.50
2019-02-15T04:07:09.927Z,-1.50
2019-02-15T04:09:36.476Z,-1.50
2019-02-15T04:12:03.001Z,-1.60
2019-02-15T04:14:32.790Z,-1.60
2019-02-15T04:16:57.914Z,-1.60
2019-02-15T04:19:24.438Z,-1.60
2019-02-15T04:21:50.994Z,-1.50
2019-02-15T04:24:17.588Z,-1.40
2019-02-15T04:26:44.134Z,-1.20
2019-02-15T04:29:10.685Z,-1.00
2019-02-15T04:31:37.241Z,-0.90
2019-02-15T04:34:03.755Z,-0.70
2019-02-15T04:36:30.313Z,-0.60
2019-02-15T04:38:56.830Z,-0.60
2019-02-15T04:41:23.386Z,-0.60
2019-02-15T04:43:49.911Z,-0.60
2019-02-15T04:46:16.462Z,-0.60
2019-02-15T04:48:42.979Z,-0.60
2019-02-15T04:51:09.540Z,-0.60
2019-02-15T04:53:36.944Z,-0.60
2019-02-15T04:56:04.169Z,-0.60
2019-02-15T04:58:30.724Z,-0.60
2019-02-15T05:00:57.249Z,-0.60
2019-02-15T05:03:23.805Z,-0.60
2019-02-15T05:05:50.401Z,-0.60
2019-02-15T05:08:17.223Z,-0.60
2019-02-15T05:10:43.782Z,-0.50
2019-02-15T05:13:10.424Z,-0.60
2019-02-15T05:15:36.945Z,-0.60
2019-02-15T05:18:03.505Z,-0.60
2019-02-15T05:20:30.059Z,-0.60
2019-02-15T05:22:56.574Z,-0.60
2019-02-15T05:25:23.164Z,-0.70
2019-02-15T05:27:49.724Z,-0.70
2019-02-15T05:30:16.235Z,-0.80
2019-02-15T05:32:42.793Z,-0.80
2019-02-15T05:35:09.349Z,-0.60
2019-02-15T05:37:35.869Z,-0.60
2019-02-15T05:40:02.429Z,-0.60
2019-02-15T05:42:28.959Z,-0.60
2019-02-15T05:45:03.297Z,-0.60
2019-02-15T05:47:23.874Z,-0.60
2019-02-15T05:49:50.375Z,-0.60
2019-02-15T05:52:16.941Z,-0.70
2019-02-15T05:54:43.459Z,-0.70
2019-02-15T05:57:10.009Z,-0.60
2019-02-15T05:59:36.566Z,-0.60
2019-02-15T06:02:03.084Z,-0.60
2019-02-15T06:04:29.636Z,-0.60
2019-02-15T06:06:56.192Z,-0.60
2019-02-15T06:09:22.713Z,-0.60
2019-02-15T06:11:49.373Z,-0.60
2019-02-15T06:14:16.406Z,-0.60
2019-02-15T06:16:43.036Z,-0.60
2019-02-15T06:19:09.687Z,-0.60
2019-02-15T06:21:36.295Z,-0.70
2019-02-15T06:24:02.942Z,-0.70
2019-02-15T06:26:29.568Z,-0.70
2019-02-15T06:28:56.179Z,-0.80
2019-02-15T06:31:22.777Z,-1.10
2019-02-15T06:33:49.414Z,-1.30
2019-02-15T06:36:16.011Z,-1.40
2019-02-15T06:38:42.714Z,-1.50
2019-02-15T06:41:09.353Z,-1.50
2019-02-15T06:43:35.863Z,-1.50
2019-02-15T06:46:02.428Z,-1.50
2019-02-15T06:48:28.935Z,-1.50
2019-02-15T06:50:55.497Z,-1.50
2019-02-15T06:53:22.009Z,-1.50
2019-02-15T06:55:48.576Z,-1.50
2019-02-15T06:58:15.102Z,-1.50
2019-02-15T07:00:43.456Z,-1.40
2019-02-15T07:03:14.284Z,-1.40
2019-02-15T07:05:40.836Z,-1.40
2019-02-15T07:08:07.358Z,-1.50
2019-02-15T07:10:33.914Z,-1.50
2019-02-15T07:13:00.473Z,-1.40
2019-02-15T07:15:33.485Z,-1.30
2019-02-15T07:17:55.377Z,-1.20
2019-02-15T07:20:21.960Z,-1.10
2019-02-15T07:22:49.208Z,-1.00
2019-02-15T07:25:15.765Z,-1.00
2019-02-15T07:27:42.312Z,-1.00
2019-02-15T07:30:12.084Z,-0.80
2019-02-15T07:32:38.640Z,-0.70
2019-02-15T07:35:05.701Z,-0.70
2019-02-15T07:37:32.226Z,-0.80
2019-02-15T07:39:58.776Z,-0.90
2019-02-15T07:42:25.336Z,-0.80
2019-02-15T07:44:51.894Z,-0.60
2019-02-15T07:47:18.412Z,-0.40
2019-02-15T07:49:44.956Z,0.00
2019-02-15T07:52:12.613Z,0.40
2019-02-15T07:54:39.121Z,0.60
2019-02-15T07:57:05.709Z,0.90
2019-02-15T07:59:32.548Z,1.20
2019-02-15T08:02:01.915Z,1.30
2019-02-15T08:04:27.400Z,1.60
2019-02-15T08:06:53.960Z,1.90
2019-02-15T08:09:20.473Z,2.00
2019-02-15T08:11:47.034Z,2.20
2019-02-15T08:14:15.119Z,2.50
2019-02-15T08:16:41.918Z,2.70
2019-02-15T08:19:08.508Z,2.50
2019-02-15T08:21:35.018Z,2.50
2019-02-15T08:24:01.569Z,2.70
2019-02-15T08:26:28.085Z,2.90
2019-02-15T08:28:54.651Z,2.90
2019-02-15T08:31:21.164Z,2.80
2019-02-15T08:33:47.725Z,2.60
2019-02-15T08:36:14.279Z,2.70
2019-02-15T08:38:40.799Z,2.90
2019-02-15T08:41:07.350Z,3.20
2019-02-15T08:43:34.696Z,3.60
2019-02-15T08:46:03.335Z,3.80
2019-02-15T08:48:29.644Z,4.10
2019-02-15T08:50:56.160Z,4.20
2019-02-15T08:53:22.817Z,4.20
2019-02-15T08:55:49.328Z,4.40
2019-02-15T08:58:16.289Z,4.50
2019-02-15T09:00:42.848Z,4.60
2019-02-15T09:03:09.369Z,4.50
2019-02-15T09:05:35.928Z,4.40
2019-02-15T09:08:02.451Z,4.50
2019-02-15T09:10:29.010Z,4.60
2019-02-15T09:12:55.564Z,4.90
2019-02-15T09:15:22.584Z,5.30
2019-02-15T09:17:49.144Z,5.50
2019-02-15T09:20:15.704Z,5.70
2019-02-15T09:22:42.267Z,5.70
2019-02-15T09:25:09.517Z,5.80
2019-02-15T09:27:37.838Z,5.80
2019-02-15T09:30:06.396Z,5.60
2019-02-15T09:32:32.915Z,5.70
2019-02-15T09:34:59.499Z,5.60
2019-02-15T09:37:26.046Z,5.50
2019-02-15T09:39:52.592Z,5.60
2019-02-15T09:42:19.153Z,5.90
2019-02-15T09:44:45.704Z,5.90
2019-02-15T09:47:12.260Z,6.00
2019-02-15T09:49:38.787Z,6.10
2019-02-15T09:52:05.338Z,6.30
2019-02-15T09:54:31.987Z,6.30
2019-02-15T09:56:58.714Z,6.50
2019-02-15T09:59:25.449Z,6.50
2019-02-15T10:01:51.956Z,6.70
2019-02-15T10:04:18.631Z,6.60
2019-02-15T10:06:45.216Z,6.60
2019-02-15T10:09:12.956Z,6.60
2019-02-15T10:11:40.028Z,6.70
2019-02-15T10:14:06.600Z,6.90
2019-02-15T10:16:33.154Z,6.90
2019-02-15T10:18:59.793Z,7.00
2019-02-15T10:21:26.361Z,7.10
2019-02-15T10:23:52.920Z,7.10
2019-02-15T10:26:19.476Z,7.10
2019-02-15T10:28:45.992Z,7.10
2019-02-15T10:31:12.548Z,7.00
2019-02-15T10:33:39.103Z,7.20
2019-02-15T10:36:05.632Z,7.30
2019-02-15T10:38:32.176Z,7.40
2019-02-15T10:40:58.767Z,7.50
2019-02-15T10:43:25.389Z,7.60
2019-02-15T10:45:51.940Z,7.60
2019-02-15T10:48:18.474Z,7.50
2019-02-15T10:50:45.029Z,7.50
2019-02-15T10:53:11.581Z,7.60
2019-02-15T10:55:38.240Z,7.70
2019-02-15T10:58:04.858Z,7.80
2019-02-15T11:00:31.412Z,7.90
2019-02-15T11:02:57.936Z,7.90
2019-02-15T11:05:24.501Z,8.00
2019-02-15T11:07:51.113Z,8.10
2019-02-15T11:10:17.680Z,8.20
2019-02-15T11:12:44.274Z,8.20
2019-02-15T11:15:11.961Z,8.30
2019-02-15T11:17:39.385Z,8.30
2019-02-15T11:20:07.485Z,8.40
2019-02-15T11:22:35.893Z,8.40
2019-02-15T11:25:02.615Z,8.50
2019-02-15T11:27:29.163Z,8.70
2019-02-15T11:29:55.744Z,8.80
2019-02-15T11:32:22.260Z,9.10
2019-02-15T11:34:48.820Z,9.20
2019-02-15T11:37:15.338Z,9.30
2019-02-15T11:39:41.968Z,9.40
2019-02-15T11:42:08.529Z,9.60
2019-02-15T11:44:35.133Z,9.60
2019-02-15T11:47:01.697Z,9.60
2019-02-15T11:49:28.256Z,9.70
2019-02-15T11:51:54.800Z,9.80
2019-02-15T11:54:23.613Z,10.00
2019-02-15T11:56:49.860Z,10.10
2019-02-15T11:59:16.392Z,10.30
2019-02-15T12:01:42.973Z,10.30
2019-02-15T12:04:09.528Z,10.30
2019-02-15T12:06:36.054Z,10.30
2019-02-15T12:09:03.804Z,10.30
2019-02-15T12:11:30.328Z,10.00
2019-02-15T12:13:56.926Z,9.90
2019-02-15T12:16:23.501Z,9.90
2019-02-15T12:18:50.009Z,9.90
2019-02-15T12:21:16.604Z,9.80
2019-02-15T12:23:43.129Z,9.80
2019-02-15T12:26:09.725Z,9.80
2019-02-15T12:28:36.244Z,9.80
2019-02-15T12:31:02.805Z,9.80
2019-02-15T12:33:29.484Z,9.80
2019-02-15T12:35:56.009Z,10.00
2019-02-15T12:38:22.586Z,10.20
2019-02-15T12:40:49.098Z,10.20
2019-02-15T12:43:15.655Z,10.30
2019-02-15T12:45:43.100Z,10.40
2019-02-15T12:48:09.671Z,10.60
2019-02-15T12:50:36.185Z,10.80
2019-02-15T12:53:03.840Z,10.80
2019-02-15T12:55:30.360Z,10.90
2019-02-15T12:57:56.923Z,11.10
2019-02-15T13:00:23.472Z,11.10
2019-02-15T13:02:49.987Z,11.30
2019-02-15T13:05:16.550Z,11.40
2019-02-15T13:07:43.127Z,11.50
2019-02-15T13:10:11.966Z,11.70
2019-02-15T13:12:38.521Z,12.00
2019-02-15T13:15:06.484Z,12.10
2019-02-15T13:17:33.045Z,12.20
2019-02-15T13:19:59.556Z,12.40
2019-02-15T13:22:26.155Z,12.40
2019-02-15T13:24:52.701Z,12.30
2019-02-15T13:27:19.892Z,12.20
2019-02-15T13:29:46.448Z,12.30
2019-02-15T13:32:13.009Z,12.30
2019-02-15T13:34:39.560Z,12.30
2019-02-15T13:37:06.123Z,12.20
2019-02-15T13:39:32.645Z,12.30
2019-02-15T13:41:59.210Z,12.40
2019-02-15T13:44:26.629Z,12.50
2019-02-15T13:46:53.188Z,12.50
2019-02-15T13:49:19.705Z,12.50
2019-02-15T13:51:46.256Z,12.60
2019-02-15T13:54:12.815Z,12.30
2019-02-15T13:56:40.624Z,12.30
2019-02-15T13:59:07.294Z,12.30
2019-02-15T14:01:33.812Z,12.20
2019-02-15T14:04:00.368Z,12.20
2019-02-15T14:06:26.924Z,12.20
2019-02-15T14:08:53.445Z,12.00
2019-02-15T14:11:20.005Z,12.20
2019-02-15T14:13:46.560Z,12.30
2019-02-15T14:16:13.125Z,12.40
2019-02-15T14:18:39.686Z,12.20
2019-02-15T14:21:06.244Z,12.00
2019-02-15T14:23:32.765Z,11.90
2019-02-15T14:25:59.320Z,11.80
2019-02-15T14:28:25.881Z,11.70
2019-02-15T14:30:52.402Z,11.60
2019-02-15T14:33:18.960Z,11.50
2019-02-15T14:35:45.514Z,11.40
2019-02-15T14:38:12.050Z,11.50
2019-02-15T14:40:38.613Z,11.60
2019-02-15T14:43:05.169Z,11.60
2019-02-15T14:45:31.688Z,11.60
2019-02-15T14:47:58.241Z,11.50
2019-02-15T14:50:24.812Z,11.50
2019-02-15T14:52:51.322Z,11.50
2019-02-15T14:55:17.880Z,11.20
2019-02-15T14:57:45.301Z,11.00
2019-02-15T15:00:12.197Z,10.80
2019-02-15T15:02:38.785Z,10.70
2019-02-15T15:05:05.749Z,10.60
2019-02-15T15:07:32.865Z,10.60
2019-02-15T15:09:59.441Z,10.70
2019-02-15T15:12:25.960Z,10.90
2019-02-15T15:14:52.516Z,10.80
2019-02-15T15:17:19.117Z,10.70
2019-02-15T15:19:45.636Z,10.60
2019-02-15T15:22:13.244Z,10.50
2019-02-15T15:24:39.759Z,10.50
2019-02-15T15:27:06.313Z,10.70
2019-02-15T15:29:33.196Z,10.90
2019-02-15T15:31:59.754Z,10.80
2019-02-15T15:34:26.323Z,10.70
2019-02-15T15:36:52.852Z,10.40
2019-02-15T15:39:19.404Z,10.20
2019-02-15T15:41:45.925Z,10.20
2019-02-15T15:44:12.783Z,10.00
2019-02-15T15:46:39.324Z,9.90
2019-02-15T15:49:05.845Z,9.60
2019-02-15T15:51:32.405Z,9.30
2019-02-15T15:53:58.921Z,9.10
2019-02-15T15:56:25.445Z,8.90
2019-02-15T15:58:52.006Z,8.70
2019-02-15T16:01:18.573Z,8.50
2019-02-15T16:03:45.089Z,8.30
2019-02-15T16:06:11.645Z,8.20
2019-02-15T16:08:38.160Z,8.00
2019-02-15T16:11:04.716Z,7.90
2019-02-15T16:13:31.265Z,7.70
2019-02-15T16:15:57.782Z,7.60
2019-02-15T16:18:33.024Z,7.60
2019-02-15T16:20:52.697Z,7.50
2019-02-15T16:23:19.254Z,7.40
2019-02-15T16:25:45.773Z,7.50
2019-02-15T16:28:12.332Z,7.40
2019-02-15T16:30:38.859Z,7.40
2019-02-15T16:33:05.415Z,7.40
2019-02-15T16:35:32.014Z,7.30
2019-02-15T16:37:58.523Z,7.10
2019-02-15T16:40:25.078Z,7.00
2019-02-15T16:42:51.595Z,7.00
2019-02-15T16:45:18.146Z,6.90
2019-02-15T16:47:44.700Z,6.80
2019-02-15T16:50:11.621Z,6.70
2019-02-15T16:52:38.816Z,6.50
2019-02-15T16:55:12.358Z,6.40
2019-02-15T16:57:34.594Z,6.30
2019-02-15T17:00:01.111Z,6.20
2019-02-15T17:02:27.636Z,6.10
2019-02-15T17:04:54.188Z,6.00
2019-02-15T17:07:20.709Z,5.90
2019-02-15T17:09:47.265Z,5.80
2019-02-15T17:12:13.786Z,5.80
2019-02-15T17:14:40.310Z,5.70
2019-02-15T17:17:06.961Z,5.60
2019-02-15T17:19:33.517Z,5.60
2019-02-15T17:22:00.074Z,5.50
2019-02-15T17:24:26.633Z,5.50
2019-02-15T17:26:53.155Z,5.50
2019-02-15T17:29:19.705Z,5.40
2019-02-15T17:31:46.229Z,5.40
2019-02-15T17:34:12.781Z,5.30
2019-02-15T17:36:39.336Z,5.20
2019-02-15T17:39:05.855Z,5.20
2019-02-15T17:41:32.412Z,5.10
2019-02-15T17:43:58.933Z,5.10
2019-02-15T17:46:25.489Z,5.00
2019-02-15T17:49:00.331Z,5.00
2019-02-15T17:51:20.364Z,4.90
2019-02-15T17:53:48.381Z,4.80
2019-02-15T17:56:14.896Z,4.80
2019-02-15T17:58:41.452Z,4.70
2019-02-15T18:01:08.017Z,4.60
2019-02-15T18:03:34.532Z,4.60
2019-02-15T18:06:01.088Z,4.60
2019-02-15T18:08:27.606Z,4.60
2019-02-15T18:10:54.152Z,4.60
2019-02-15T18:13:20.674Z,4.60
2019-02-15T18:15:47.225Z,4.60
2019-02-15T18:18:13.745Z,4.60
2019-02-15T18:20:40.337Z,4.60
2019-02-15T18:23:06.851Z,4.60
2019-02-15T18:25:33.409Z,4.50
2019-02-15T18:27:59.972Z,4.50
2019-02-15T18:30:26.617Z,4.50
2019-02-15T18:32:53.134Z,4.30
2019-02-15T18:35:19.689Z,4.30
2019-02-15T18:37:46.246Z,4.30
2019-02-15T18:40:12.766Z,4.30
2019-02-15T18:42:39.330Z,4.20
2019-02-15T18:45:07.590Z,4.20
2019-02-15T18:47:34.112Z,4.10
2019-02-15T18:50:00.664Z,4.00
2019-02-15T18:52:27.211Z,4.00
2019-02-15T18:54:53.769Z,3.80
2019-02-15T18:57:20.493Z,3.70
2019-02-15T18:59:47.067Z,3.60
2019-02-15T19:02:13.584Z,3.40
2019-02-15T19:04:40.169Z,3.30
2019-02-15T19:07:06.724Z,3.10
2019-02-15T19:09:33.245Z,3.00
2019-02-15T19:11:59.806Z,2.90
2019-02-15T19:14:26.324Z,2.90
2019-02-15T19:16:52.886Z,2.90
2019-02-15T19:19:28.676Z,2.80
2019-02-15T19:21:48.217Z,2.80
2019-02-15T19:24:14.765Z,2.80
2019-02-15T19:26:41.283Z,2.80
2019-02-15T19:29:07.836Z,2.80
2019-02-15T19:31:34.353Z,2.90
2019-02-15T19:34:00.908Z,2.90
2019-02-15T19:36:27.469Z,2.80
2019-02-15T19:38:53.997Z,2.70
2019-02-15T19:41:20.558Z,2.70
2019-02-15T19:43:47.320Z,2.60
2019-02-15T19:46:13.898Z,2.60
2019-02-15T19:48:40.425Z,2.60
2019-02-15T19:51:06.993Z,2.50
2019-02-15T19:53:33.593Z,2.40
2019-02-15T19:56:00.149Z,2.40
2019-02-15T19:58:26.664Z,2.30
2019-02-15T20:00:53.264Z,2.20
2019-02-15T20:03:19.815Z,2.30
2019-02-15T20:05:48.275Z,2.30
2019-02-15T20:08:14.680Z,2.30
2019-02-15T20:10:41.258Z,2.20
2019-02-15T20:13:07.779Z,2.20
2019-02-15T20:15:34.339Z,2.30
2019-02-15T20:18:00.877Z,2.30
2019-02-15T20:20:27.432Z,2.30
2019-02-15T20:22:54.433Z,2.20
2019-02-15T20:25:20.990Z,2.20
2019-02-15T20:27:47.544Z,2.20
2019-02-15T20:30:20.956Z,2.20
2019-02-15T20:32:47.519Z,2.20
2019-02-15T20:35:14.029Z,2.20
2019-02-15T20:37:40.592Z,2.20
2019-02-15T20:40:10.666Z,2.20
2019-02-15T20:42:37.187Z,2.30
2019-02-15T20:45:05.539Z,2.20
2019-02-15T20:47:32.056Z,2.20
2019-02-15T20:49:58.616Z,2.10
2019-02-15T20:52:25.151Z,2.10
2019-02-15T20:54:51.739Z,2.00
2019-02-15T20:57:18.340Z,2.00
2019-02-15T20:59:44.908Z,2.00
2019-02-15T21:02:11.559Z,1.90
2019-02-15T21:04:38.081Z,1.70
2019-02-15T21:07:04.646Z,1.70
2019-02-15T21:09:31.165Z,1.70
2019-02-15T21:11:57.829Z,1.60
2019-02-15T21:14:24.384Z,1.20
2019-02-15T21:16:51.471Z,0.90
2019-02-15T21:19:18.723Z,0.90
2019-02-15T21:21:45.237Z,1.00
2019-02-15T21:24:11.809Z,1.00
2019-02-15T21:26:38.408Z,1.00
2019-02-15T21:29:04.928Z,1.00
2019-02-15T21:31:31.496Z,1.00
2019-02-15T21:33:58.045Z,1.10
2019-02-15T21:36:26.293Z,1.10
2019-02-15T21:38:52.916Z,1.00
2019-02-15T21:41:19.443Z,1.00
2019-02-15T21:43:45.997Z,0.90
2019-02-15T21:46:12.520Z,0.90
2019-02-15T21:48:39.077Z,0.80
2019-02-15T21:51:05.632Z,0.70
2019-02-15T21:53:32.153Z,0.70
2019-02-15T21:55:58.733Z,0.80
2019-02-15T21:58:25.261Z,0.70
2019-02-15T22:00:51.889Z,0.70
2019-02-15T22:03:18.404Z,0.70
2019-02-15T22:05:44.956Z,0.60
2019-02-15T22:08:11.513Z,0.60
2019-02-15T22:10:38.032Z,0.60
2019-02-15T22:13:04.588Z,0.60
2019-02-15T22:15:31.113Z,0.60
2019-02-15T22:17:57.700Z,0.70
2019-02-15T22:20:26.781Z,0.70
2019-02-15T22:22:52.577Z,0.50
2019-02-15T22:25:19.102Z,0.60
2019-02-15T22:27:45.671Z,0.60
2019-02-15T22:30:13.282Z,0.50
2019-02-15T22:32:39.833Z,0.50
2019-02-15T22:35:06.589Z,0.50
2019-02-15T22:37:33.110Z,0.60
2019-02-15T22:40:01.473Z,0.60
2019-02-15T22:42:28.108Z,0.60
2019-02-15T22:44:54.634Z,0.50
2019-02-15T22:47:21.193Z,0.60
2019-02-15T22:49:48.412Z,0.60
2019-02-15T22:52:14.963Z,0.60
2019-02-15T22:54:41.487Z,0.60
2019-02-15T22:57:08.049Z,0.60
2019-02-15T22:59:34.605Z,0.60
2019-02-15T23:02:01.120Z,0.50
2019-02-15T23:04:27.683Z,0.40
2019-02-15T23:06:54.200Z,0.40
2019-02-15T23:09:22.557Z,0.40
2019-02-15T23:11:49.073Z,0.30
2019-02-15T23:14:15.628Z,0.30
2019-02-15T23:16:42.184Z,0.30
2019-02-15T23:19:08.751Z,0.30
2019-02-15T23:21:35.310Z,0.30
2019-02-15T23:24:01.821Z,0.30
2019-02-15T23:26:28.396Z,0.20
2019-02-15T23:28:55.316Z,0.20
2019-02-15T23:31:21.872Z,0.30
2019-02-15T23:33:48.536Z,0.30
2019-02-15T23:36:15.058Z,0.40
2019-02-15T23:38:41.608Z,0.40
2019-02-15T23:41:08.140Z,0.40
2019-02-15T23:43:34.688Z,0.40
2019-02-15T23:46:01.241Z,0.40
2019-02-15T23:48:27.768Z,0.40
2019-02-15T23:50:55.311Z,0.30
2019-02-15T23:53:21.976Z,0.30
2019-02-15T23:55:48.499Z,0.20
2019-02-15T23:58:15.057Z,0.20
